createdAt,value
2022-10-11T00:00:33.044Z,2.65
2022-10-11T00:03:01.354Z,2.45
2022-10-11T00:05:29.641Z,2.47
2022-10-11T00:07:57.743Z,2.70
2022-10-11T00:10:26.173Z,2.03
2022-10-11T00:12:53.996Z,2.28
2022-10-11T00:15:23.132Z,2.92
2022-10-11T00:17:52.631Z,2.60
2022-10-11T00:20:20.671Z,2.55
2022-10-11T00:22:49.347Z,2.17
2022-10-11T00:25:18.246Z,2.55
2022-10-11T00:27:46.309Z,2.13
2022-10-11T00:30:15.373Z,2.25
2022-10-11T00:32:43.055Z,1.98
2022-10-11T00:35:12.392Z,2.03
2022-10-11T00:37:40.647Z,2.45
2022-10-11T00:40:13.848Z,2.15
2022-10-11T00:42:41.617Z,1.88
2022-10-11T00:45:46.608Z,2.05
2022-10-11T00:48:19.966Z,1.98
2022-10-11T00:50:49.730Z,1.92
2022-10-11T00:53:17.595Z,2.00
2022-10-11T00:55:53.339Z,2.20
2022-10-11T00:58:24.103Z,1.98
2022-10-11T01:00:53.461Z,1.98
2022-10-11T01:03:25.759Z,1.95
2022-10-11T01:05:56.024Z,2.03
2022-10-11T01:08:24.341Z,2.40
2022-10-11T01:10:53.070Z,1.73
2022-10-11T01:13:34.764Z,1.60
2022-10-11T01:16:12.592Z,2.05
2022-10-11T01:18:49.589Z,2.05
2022-10-11T01:21:32.231Z,1.63
2022-10-11T01:24:39.209Z,1.63
2022-10-11T01:27:30.245Z,1.75
2022-10-11T01:30:07.749Z,1.52
2022-10-11T01:32:44.826Z,1.40
2022-10-11T01:35:20.739Z,2.03
2022-10-11T01:37:54.810Z,1.60
2022-10-11T01:40:25.908Z,1.83
2022-10-11T01:42:55.842Z,1.85
2022-10-11T01:45:24.441Z,1.70
2022-10-11T01:48:05.315Z,1.70
2022-10-11T01:50:52.383Z,1.27
2022-10-11T01:53:39.969Z,1.58
2022-10-11T01:59:00.971Z,1.15
2022-10-11T02:01:38.863Z,1.35
2022-10-11T02:04:16.720Z,1.60
2022-10-11T02:06:52.220Z,1.83
2022-10-11T02:09:27.337Z,1.17
2022-10-11T02:12:02.328Z,1.35
2022-10-11T02:14:36.051Z,1.77
2022-10-11T02:17:09.752Z,1.88
2022-10-11T02:19:42.580Z,1.48
2022-10-11T02:22:16.224Z,1.50
2022-10-11T02:24:49.723Z,1.40
2022-10-11T02:27:22.266Z,1.40
2022-10-11T02:29:53.532Z,1.48
2022-10-11T02:32:22.973Z,1.73
2022-10-11T02:34:55.143Z,1.40
2022-10-11T02:37:29.177Z,1.58
2022-10-11T02:40:04.106Z,1.73
2022-10-11T02:42:38.130Z,1.60
2022-10-11T02:45:12.512Z,1.60
2022-10-11T02:47:42.395Z,1.33
2022-10-11T02:50:12.240Z,1.17
2022-10-11T02:52:40.454Z,1.92
2022-10-11T02:55:09.945Z,1.33
2022-10-11T02:57:37.821Z,1.52
2022-10-11T03:00:06.781Z,2.00
2022-10-11T03:02:34.711Z,1.88
2022-10-11T03:05:02.574Z,2.03
2022-10-11T03:07:31.979Z,2.17
2022-10-11T03:09:59.904Z,1.83
2022-10-11T03:12:27.826Z,2.15
2022-10-11T03:14:55.781Z,1.70
2022-10-11T03:17:36.168Z,1.80
2022-10-11T03:22:34.234Z,1.52
2022-10-11T03:25:04.345Z,1.40
2022-10-11T03:27:32.820Z,1.40
2022-10-11T03:30:00.924Z,1.50
2022-10-11T03:32:28.829Z,1.55
2022-10-11T03:34:57.324Z,1.73
2022-10-11T03:37:25.872Z,1.67
2022-10-11T03:39:55.151Z,1.38
2022-10-11T03:42:23.071Z,1.50
2022-10-11T03:44:51.995Z,1.52
2022-10-11T03:47:20.382Z,1.55
2022-10-11T03:49:48.226Z,1.63
2022-10-11T03:52:16.006Z,1.42
2022-10-11T03:54:43.884Z,1.42
2022-10-11T03:57:13.184Z,1.00
2022-10-11T03:59:40.942Z,1.23
2022-10-11T04:02:08.907Z,1.35
2022-10-11T04:04:37.932Z,1.27
2022-10-11T04:07:05.883Z,1.70
2022-10-11T04:09:33.689Z,1.30
2022-10-11T04:12:01.631Z,1.52
2022-10-11T04:14:31.243Z,1.35
2022-10-11T04:17:00.495Z,1.25
2022-10-11T04:19:29.117Z,1.13
2022-10-11T04:24:24.507Z,1.13
2022-10-11T04:26:52.309Z,1.17
2022-10-11T04:29:20.053Z,1.42
2022-10-11T04:31:49.254Z,1.15
2022-10-11T04:34:17.448Z,1.63
2022-10-11T04:36:49.641Z,2.00
2022-10-11T04:39:17.854Z,1.33
2022-10-11T04:41:45.778Z,1.98
2022-10-11T04:44:13.681Z,1.73
2022-10-11T04:46:41.377Z,1.92
2022-10-11T04:49:10.524Z,2.10
2022-10-11T04:51:38.384Z,2.10
2022-10-11T04:54:06.334Z,1.70
2022-10-11T04:56:34.094Z,2.25
2022-10-11T04:59:01.964Z,2.30
2022-10-11T05:01:29.974Z,2.42
2022-10-11T05:03:57.889Z,2.13
2022-10-11T05:06:27.004Z,2.80
2022-10-11T05:08:54.764Z,1.98
2022-10-11T05:11:23.235Z,2.50
2022-10-11T05:16:18.927Z,2.40
2022-10-11T05:18:46.825Z,2.95
2022-10-11T05:21:18.175Z,2.78
2022-10-11T05:23:48.418Z,3.00
2022-10-11T05:26:16.578Z,2.42
2022-10-11T05:28:44.837Z,2.65
2022-10-11T05:31:12.804Z,2.90
2022-10-11T05:33:41.303Z,3.28
2022-10-11T05:36:09.872Z,2.83
2022-10-11T05:38:39.265Z,2.72
2022-10-11T05:41:10.020Z,2.88
2022-10-11T05:43:37.961Z,2.53
2022-10-11T05:46:06.751Z,2.65
2022-10-11T05:48:35.380Z,3.00
2022-10-11T05:51:05.122Z,2.92
2022-10-11T05:53:33.955Z,2.22
2022-10-11T05:56:02.123Z,2.80
2022-10-11T05:58:31.423Z,2.97
2022-10-11T06:00:59.300Z,2.28
2022-10-11T06:03:27.182Z,2.75
2022-10-11T06:06:03.141Z,2.80
2022-10-11T06:08:31.879Z,2.63
2022-10-11T06:10:59.637Z,2.60
2022-10-11T06:13:27.377Z,2.60
2022-10-11T06:15:57.246Z,3.38
2022-10-11T06:18:24.999Z,3.70
2022-10-11T06:20:52.830Z,2.75
2022-10-11T06:23:20.761Z,2.80
2022-10-11T06:25:57.455Z,2.60
2022-10-11T06:28:25.541Z,2.67
2022-10-11T06:30:53.393Z,2.88
2022-10-11T06:33:22.989Z,2.60
2022-10-11T06:35:50.956Z,2.67
2022-10-11T06:38:19.130Z,2.55
2022-10-11T06:40:46.978Z,3.20
2022-10-11T06:43:14.810Z,2.50
2022-10-11T06:45:42.577Z,2.53
2022-10-11T06:48:10.429Z,2.72
2022-10-11T06:50:58.467Z,2.47
2022-10-11T06:53:27.107Z,2.72
2022-10-11T06:55:54.934Z,2.58
2022-10-11T06:58:22.721Z,2.80
2022-10-11T07:00:50.723Z,2.72
2022-10-11T07:03:18.572Z,2.38
2022-10-11T07:05:47.676Z,2.20
2022-10-11T07:08:15.636Z,2.38
2022-10-11T07:10:43.391Z,2.30
2022-10-11T07:13:16.293Z,2.58
2022-10-11T07:15:45.014Z,2.13
2022-10-11T07:18:12.808Z,2.63
2022-10-11T07:20:40.674Z,2.58
2022-10-11T07:23:11.248Z,2.58
2022-10-11T07:25:39.460Z,2.33
2022-10-11T07:28:07.547Z,2.13
2022-10-11T07:30:38.902Z,1.90
2022-10-11T07:33:07.021Z,2.65
2022-10-11T07:35:36.691Z,2.50
2022-10-11T07:38:05.883Z,2.60
2022-10-11T07:40:41.736Z,2.28
2022-10-11T07:43:09.488Z,2.47
2022-10-11T07:45:38.672Z,2.30
2022-10-11T07:48:06.923Z,1.98
2022-10-11T07:50:35.552Z,2.15
2022-10-11T07:53:03.818Z,1.73
2022-10-11T07:55:35.539Z,1.85
2022-10-11T07:58:04.779Z,1.95
2022-10-11T08:00:32.524Z,2.28
2022-10-11T08:03:02.288Z,1.90
2022-10-11T08:05:30.842Z,2.38
2022-10-11T08:07:59.419Z,1.88
2022-10-11T08:10:27.331Z,1.90
2022-10-11T08:12:55.187Z,2.28
2022-10-11T08:15:24.404Z,1.77
2022-10-11T08:17:52.186Z,1.90
2022-10-11T08:20:20.238Z,1.65
2022-10-11T08:22:48.006Z,1.77
2022-10-11T08:25:15.799Z,2.28
2022-10-11T08:27:44.148Z,1.65
2022-10-11T08:32:41.528Z,1.88
2022-10-11T08:35:09.928Z,1.60
2022-10-11T08:40:06.883Z,1.40
2022-10-11T08:42:39.494Z,1.73
2022-10-11T08:45:12.369Z,1.80
2022-10-11T08:47:43.887Z,1.77
2022-10-11T08:50:18.952Z,1.80
2022-10-11T08:52:51.736Z,1.50
2022-10-11T08:55:25.774Z,1.45
2022-10-11T08:57:56.168Z,1.65
2022-10-11T09:00:25.367Z,2.00
2022-10-11T09:03:09.591Z,1.88
2022-10-11T09:05:45.435Z,1.60
2022-10-11T09:08:23.255Z,1.70
2022-10-11T09:11:01.144Z,1.77
2022-10-11T09:14:03.186Z,2.05
2022-10-11T09:16:42.624Z,1.63
2022-10-11T09:19:27.697Z,1.98
2022-10-11T09:22:09.660Z,1.92
2022-10-11T09:25:04.354Z,1.77
2022-10-11T09:28:01.188Z,1.98
2022-10-11T09:30:25.724Z,1.80
2022-10-11T09:33:03.695Z,2.40
2022-10-11T09:35:39.947Z,2.20
2022-10-11T09:38:16.615Z,1.80
2022-10-11T09:40:56.198Z,2.42
2022-10-11T09:43:23.932Z,1.95
2022-10-11T09:45:51.795Z,2.00
2022-10-11T09:48:23.398Z,1.65
2022-10-11T09:50:55.388Z,1.13
2022-10-11T09:53:57.067Z,1.15
2022-10-11T09:56:26.335Z,1.20
2022-10-11T09:59:18.406Z,1.58
2022-10-11T10:01:46.443Z,1.77
2022-10-11T10:04:16.943Z,1.30
2022-10-11T10:06:46.633Z,1.42
2022-10-11T10:09:27.960Z,1.73
2022-10-11T10:11:56.462Z,1.42
2022-10-11T10:14:28.586Z,1.00
2022-10-11T10:17:03.004Z,1.17
2022-10-11T10:19:43.762Z,1.45
2022-10-11T10:22:20.559Z,1.23
2022-10-11T10:24:50.270Z,1.38
2022-10-11T10:27:22.141Z,1.13
2022-10-11T10:30:19.971Z,0.90
2022-10-11T10:32:54.557Z,1.35
2022-10-11T10:35:37.581Z,0.90
2022-10-11T10:38:13.302Z,0.93
2022-10-11T10:40:44.827Z,1.02
2022-10-11T10:43:16.557Z,1.08
2022-10-11T10:46:07.218Z,1.67
2022-10-11T10:49:15.074Z,0.80
2022-10-11T10:51:40.708Z,1.08
2022-10-11T10:54:24.238Z,1.05
2022-10-11T10:56:56.436Z,1.10
2022-10-11T10:59:46.240Z,0.93
2022-10-11T11:02:39.592Z,1.02
2022-10-11T11:05:18.075Z,1.42
2022-10-11T11:07:53.092Z,1.98
2022-10-11T11:10:25.180Z,1.20
2022-10-11T11:13:02.112Z,1.00
2022-10-11T11:15:38.139Z,0.90
2022-10-11T11:18:21.723Z,0.82
2022-10-11T11:21:05.671Z,1.05
2022-10-11T11:23:42.374Z,0.93
2022-10-11T11:26:20.096Z,0.90
2022-10-11T11:28:58.679Z,0.98
2022-10-11T11:31:49.405Z,0.90
2022-10-11T11:34:23.433Z,0.90
2022-10-11T11:36:56.155Z,0.90
2022-10-11T11:39:28.564Z,1.23
2022-10-11T11:42:02.263Z,1.20
2022-10-11T11:44:32.955Z,1.10
2022-10-11T11:47:06.847Z,0.82
2022-10-11T11:49:37.526Z,1.15
2022-10-11T11:52:08.451Z,0.80
2022-10-11T11:54:49.482Z,0.82
2022-10-11T11:59:57.715Z,0.93
2022-10-11T12:02:42.505Z,1.25
2022-10-11T12:05:12.039Z,1.52
2022-10-11T12:07:58.806Z,1.02
2022-10-11T12:10:31.186Z,1.13
2022-10-11T12:13:21.619Z,1.38
2022-10-11T12:15:59.066Z,1.17
2022-10-11T12:18:28.137Z,1.13
2022-10-11T12:21:05.621Z,0.70
2022-10-11T12:23:44.977Z,0.95
2022-10-11T12:26:34.087Z,1.00
2022-10-11T12:29:25.849Z,0.90
2022-10-11T12:32:29.212Z,0.75
2022-10-11T12:35:30.101Z,0.93
2022-10-11T12:38:14.180Z,1.23
2022-10-11T12:40:46.224Z,0.98
2022-10-11T12:43:33.082Z,1.23
2022-10-11T12:46:37.152Z,0.80
2022-10-11T12:49:21.758Z,1.23
2022-10-11T12:51:59.713Z,0.95
2022-10-11T12:54:50.208Z,1.00
2022-10-11T12:57:49.554Z,0.98
2022-10-11T13:00:23.847Z,0.70
2022-10-11T13:02:51.767Z,1.55
2022-10-11T13:05:26.939Z,1.02
2022-10-11T13:07:56.532Z,0.90
2022-10-11T13:10:30.026Z,1.25
2022-10-11T13:13:04.226Z,0.80
2022-10-11T13:15:32.545Z,0.95
2022-10-11T13:18:01.695Z,0.80
2022-10-11T13:20:37.567Z,0.80
2022-10-11T13:23:21.606Z,1.02
2022-10-11T13:25:49.957Z,0.93
2022-10-11T13:28:19.760Z,1.15
2022-10-11T13:30:50.783Z,1.35
2022-10-11T13:33:21.613Z,1.20
2022-10-11T13:35:51.208Z,1.00
2022-10-11T13:38:23.421Z,0.93
2022-10-11T13:40:51.727Z,0.75
2022-10-11T13:45:50.205Z,1.17
2022-10-11T13:48:18.660Z,1.08
2022-10-11T13:50:52.322Z,0.93
2022-10-11T13:53:26.312Z,1.10
2022-10-11T13:55:57.529Z,1.10
2022-10-11T13:58:29.271Z,1.17
2022-10-11T14:00:59.264Z,1.10
2022-10-11T14:03:36.886Z,1.38
2022-10-11T14:06:05.410Z,1.30
2022-10-11T14:08:38.947Z,1.10
2022-10-11T14:11:08.067Z,1.40
2022-10-11T14:13:38.819Z,1.42
2022-10-11T14:16:09.424Z,1.20
2022-10-11T14:18:44.527Z,1.30
2022-10-11T14:21:34.657Z,1.50
2022-10-11T14:24:06.204Z,1.52
2022-10-11T14:26:36.763Z,1.42
2022-10-11T14:29:08.430Z,1.23
2022-10-11T14:31:41.349Z,1.30
2022-10-11T14:34:15.351Z,1.80
2022-10-11T14:36:43.265Z,1.30
2022-10-11T14:39:16.335Z,1.27
2022-10-11T14:41:44.223Z,1.38
2022-10-11T14:44:12.670Z,1.30
2022-10-11T14:46:42.674Z,1.42
2022-10-11T14:49:14.639Z,1.20
2022-10-11T14:51:43.640Z,1.00
2022-10-11T14:54:13.751Z,1.35
2022-10-11T14:56:41.591Z,1.17
2022-10-11T14:59:11.458Z,1.10
2022-10-11T15:01:39.236Z,1.40
2022-10-11T15:04:07.050Z,1.23
2022-10-11T15:06:38.473Z,2.60
2022-10-11T15:09:07.249Z,4.68
2022-10-11T15:11:38.017Z,3.72
2022-10-11T15:14:06.414Z,7.10
2022-10-11T15:16:34.679Z,5.05
2022-10-11T15:21:30.836Z,5.80
2022-10-11T15:23:58.661Z,3.72
2022-10-11T15:26:28.322Z,3.13
2022-10-11T15:28:58.368Z,1.67
2022-10-11T15:31:26.262Z,1.50
2022-10-11T15:33:54.014Z,1.52
2022-10-11T15:36:23.507Z,1.42
2022-10-11T15:38:51.396Z,1.67
2022-10-11T15:41:20.417Z,1.80
2022-10-11T15:43:50.054Z,1.65
2022-10-11T15:46:22.063Z,1.83
2022-10-11T15:48:51.883Z,2.85
2022-10-11T15:51:19.968Z,3.03
2022-10-11T15:53:47.923Z,2.50
2022-10-11T15:56:18.959Z,2.28
2022-10-11T15:58:47.205Z,2.30
2022-10-11T16:03:46.398Z,1.90
2022-10-11T16:06:14.220Z,1.95
2022-10-11T16:08:42.341Z,2.35
2022-10-11T16:11:11.845Z,2.35
2022-10-11T16:13:40.437Z,2.00
2022-10-11T16:16:10.553Z,2.20
2022-10-11T16:18:39.124Z,1.80
2022-10-11T16:21:10.819Z,2.05
2022-10-11T16:23:39.308Z,1.63
2022-10-11T16:26:09.594Z,1.50
2022-10-11T16:28:37.845Z,1.40
2022-10-11T16:31:08.191Z,1.30
2022-10-11T16:33:45.182Z,1.48
2022-10-11T16:36:36.088Z,1.75
2022-10-11T16:39:08.129Z,1.40
2022-10-11T16:41:36.347Z,1.60
2022-10-11T16:46:33.157Z,1.23
2022-10-11T16:49:01.621Z,1.40
2022-10-11T16:51:31.154Z,1.50
2022-10-11T16:53:58.913Z,1.52
2022-10-11T16:56:27.686Z,1.55
2022-10-11T16:58:56.017Z,1.80
2022-10-11T17:01:24.409Z,1.80
2022-10-11T17:03:53.000Z,1.40
2022-10-11T17:06:21.306Z,1.83
2022-10-11T17:11:18.584Z,1.85
2022-10-11T17:13:46.894Z,1.60
2022-10-11T17:16:14.974Z,1.52
2022-10-11T17:18:42.920Z,2.03
2022-10-11T17:21:13.379Z,2.05
2022-10-11T17:23:41.659Z,1.92
2022-10-11T17:26:13.612Z,1.90
2022-10-11T17:28:41.984Z,1.65
2022-10-11T17:31:10.212Z,2.00
2022-10-11T17:33:38.631Z,1.85
2022-10-11T17:36:16.390Z,2.28
2022-10-11T17:38:45.029Z,2.60
2022-10-11T17:41:14.739Z,2.40
2022-10-11T17:43:42.640Z,2.08
2022-10-11T17:46:12.829Z,1.88
2022-10-11T17:48:40.919Z,2.60
2022-10-11T17:51:09.947Z,3.22
2022-10-11T17:53:39.361Z,4.18
2022-10-11T17:56:08.480Z,3.75
2022-10-11T17:58:37.944Z,6.75
2022-10-11T18:01:07.594Z,5.00
2022-10-11T18:03:35.900Z,4.72
2022-10-11T18:06:05.695Z,5.13
2022-10-11T18:08:40.018Z,4.68
2022-10-11T18:11:11.591Z,4.15
2022-10-11T18:13:43.252Z,5.35
2022-10-11T18:16:11.877Z,6.18
2022-10-11T18:18:40.307Z,5.20
2022-10-11T18:23:37.412Z,4.38
2022-10-11T18:26:10.462Z,3.60
2022-10-11T18:28:38.621Z,4.18
2022-10-11T18:31:13.008Z,3.08
2022-10-11T18:33:42.290Z,5.82
2022-10-11T18:36:13.535Z,6.35
2022-10-11T18:38:46.576Z,5.85
2022-10-11T18:41:16.094Z,10.55
2022-10-11T18:43:44.414Z,11.40
2022-10-11T18:48:43.514Z,5.20
2022-10-11T18:51:14.190Z,5.72
2022-10-11T18:53:43.144Z,4.05
2022-10-11T18:56:12.510Z,3.40
2022-10-11T18:58:41.629Z,3.88
2022-10-11T19:01:11.734Z,3.40
2022-10-11T19:03:41.040Z,2.92
2022-10-11T19:06:12.782Z,3.05
2022-10-11T19:08:40.632Z,3.03
2022-10-11T19:11:09.565Z,3.85
2022-10-11T19:13:37.910Z,3.10
2022-10-11T19:18:34.747Z,3.60
2022-10-11T19:21:05.715Z,3.08
2022-10-11T19:23:34.832Z,3.70
2022-10-11T19:26:03.447Z,3.28
2022-10-11T19:28:32.046Z,3.20
2022-10-11T19:33:30.435Z,2.85
2022-10-11T19:35:59.650Z,2.85
2022-10-11T19:38:28.850Z,3.00
2022-10-11T19:40:56.744Z,2.67
2022-10-11T19:43:24.630Z,3.08
2022-10-11T19:45:52.503Z,3.05
2022-10-11T19:48:20.295Z,2.95
2022-10-11T19:50:48.116Z,2.63
2022-10-11T19:53:16.207Z,2.90
2022-10-11T19:55:46.578Z,3.40
2022-10-11T19:58:14.683Z,3.40
2022-10-11T20:00:42.453Z,3.10
2022-10-11T20:03:10.278Z,3.33
2022-10-11T20:05:38.532Z,3.17
2022-10-11T20:08:06.317Z,3.28
2022-10-11T20:10:34.894Z,3.53
2022-10-11T20:13:04.218Z,3.55
2022-10-11T20:15:37.607Z,3.42
2022-10-11T20:18:05.916Z,3.38
2022-10-11T20:23:01.232Z,2.95
2022-10-11T20:25:29.115Z,3.53
2022-10-11T20:27:56.969Z,4.13
2022-10-11T20:30:26.275Z,4.22
2022-10-11T20:32:54.204Z,4.50
2022-10-11T20:35:22.082Z,4.55
2022-10-11T20:37:49.957Z,4.35
2022-10-11T20:40:17.830Z,4.65
2022-10-11T20:42:45.717Z,3.95
2022-10-11T20:45:13.684Z,5.00
2022-10-11T20:47:42.980Z,5.18
2022-10-11T20:50:11.074Z,4.57
2022-10-11T20:52:39.075Z,4.95
2022-10-11T20:55:07.664Z,4.65
2022-10-11T20:57:35.971Z,5.25
2022-10-11T21:00:04.243Z,5.50
2022-10-11T21:02:32.497Z,5.38
2022-10-11T21:07:29.808Z,4.40
2022-10-11T21:09:57.763Z,4.32
2022-10-11T21:12:25.623Z,4.43
2022-10-11T21:14:53.513Z,4.35
2022-10-11T21:17:21.481Z,4.47
2022-10-11T21:19:49.396Z,4.20
2022-10-11T21:22:18.591Z,4.53
2022-10-11T21:24:46.578Z,3.88
2022-10-11T21:27:14.330Z,4.25
2022-10-11T21:29:42.139Z,4.20
2022-10-11T21:32:14.258Z,3.97
2022-10-11T21:34:42.301Z,4.32
2022-10-11T21:37:10.180Z,4.55
2022-10-11T21:39:39.347Z,3.92
2022-10-11T21:42:07.473Z,4.15
2022-10-11T21:44:36.796Z,4.20
2022-10-11T21:47:07.654Z,4.57
2022-10-11T21:49:35.628Z,4.43
2022-10-11T21:52:04.227Z,4.05
2022-10-11T21:54:32.089Z,4.65
2022-10-11T21:57:01.251Z,4.55
2022-10-11T21:59:29.228Z,4.97
2022-10-11T22:02:01.695Z,4.60
2022-10-11T22:04:29.951Z,4.95
2022-10-11T22:06:57.960Z,4.75
2022-10-11T22:09:25.656Z,4.80
2022-10-11T22:11:53.589Z,5.03
2022-10-11T22:14:22.807Z,4.70
2022-10-11T22:16:50.558Z,4.57
2022-10-11T22:19:18.327Z,4.82
2022-10-11T22:21:46.286Z,4.70
2022-10-11T22:24:14.096Z,5.05
2022-10-11T22:26:41.802Z,4.75
2022-10-11T22:29:09.562Z,5.85
2022-10-11T22:31:38.654Z,5.40
2022-10-11T22:34:06.624Z,5.63
2022-10-11T22:36:34.724Z,5.88
2022-10-11T22:39:07.535Z,5.50
2022-10-11T22:41:36.017Z,5.53
2022-10-11T22:46:32.918Z,5.70
2022-10-11T22:49:02.618Z,4.97
2022-10-11T22:51:30.489Z,5.45
2022-10-11T22:53:58.357Z,5.22
2022-10-11T22:56:26.399Z,5.03
2022-10-11T22:58:54.188Z,4.78
2022-10-11T23:01:22.072Z,5.28
2022-10-11T23:03:50.818Z,5.25
2022-10-11T23:06:20.342Z,5.25
2022-10-11T23:08:48.326Z,5.13
2022-10-11T23:11:16.824Z,5.53
2022-10-11T23:13:44.687Z,5.00
2022-10-11T23:16:14.091Z,5.50
2022-10-11T23:18:42.814Z,5.03
2022-10-11T23:21:10.667Z,5.30
2022-10-11T23:23:40.639Z,5.20
2022-10-11T23:26:10.621Z,5.55
2022-10-11T23:28:39.042Z,5.00
2022-10-11T23:33:36.768Z,4.53
2022-10-11T23:36:05.045Z,5.00
2022-10-11T23:38:32.904Z,5.35
2022-10-11T23:41:02.232Z,5.05
2022-10-11T23:43:30.477Z,5.47
2022-10-11T23:45:58.318Z,5.55
2022-10-11T23:48:26.163Z,5.90
2022-10-11T23:50:53.961Z,5.22
2022-10-11T23:53:21.688Z,5.43
2022-10-11T23:55:49.531Z,5.13
2022-10-11T23:58:18.758Z,5.57
